Kidlington, United Kingdom
Current Conditions -  °F | °C
As of 1:20 PM on Sunday 23 Nov 2014 (Local Time) from EGTK Reporting Station
Broken Clouds Broken Clouds  
Wind Chill: 41°   Ceiling: 4900
Heat Index: 45°   Visibility: 6mi
Dew Point: 45°   Wind: 6mph
Humidity: 100%   Direction: 350°N
Pressure: 30.03"   Gusts: NA
Location:  51.82°N, 1.29°W
Report Text: EGTK 231320Z 35005KT 310V020 9999 FEW046 BKN049 07/07 Q1017 RERA
Loading
Personal Weather Stations






























Interactive Weather Map New forecast layout! Learn more

10-Day Weather Forecast

Advertisements
Track Severe Weather on mobile